sensor_id;sensor_type;location;lat;lon;timestamp;temperature;humidity
13186;DHT22;6658;53.080;7.428;2023-04-03T00:01:29;1.50;99.90
13186;DHT22;6658;53.080;7.428;2023-04-03T00:03:56;1.50;99.90
13186;DHT22;6658;53.080;7.428;2023-04-03T00:06:22;1.50;99.90
13186;DHT22;6658;53.080;7.428;2023-04-03T00:08:48;1.40;99.90
13186;DHT22;6658;53.080;7.428;2023-04-03T00:11:14;1.40;99.90
13186;DHT22;6658;53.080;7.428;2023-04-03T00:13:40;1.30;99.90
13186;DHT22;6658;53.080;7.428;2023-04-03T00:16:08;1.30;99.90
13186;DHT22;6658;53.080;7.428;2023-04-03T00:18:35;1.30;99.90
13186;DHT22;6658;53.080;7.428;2023-04-03T00:21:01;1.20;99.90
13186;DHT22;6658;53.080;7.428;2023-04-03T00:23:26;1.30;99.90
13186;DHT22;6658;53.080;7.428;2023-04-03T00:25:53;1.20;99.90
13186;DHT22;6658;53.080;7.428;2023-04-03T00:28:19;1.20;99.90
13186;DHT22;6658;53.080;7.428;2023-04-03T00:30:46;1.20;99.90
13186;DHT22;6658;53.080;7.428;2023-04-03T00:33:12;1.10;99.90
13186;DHT22;6658;53.080;7.428;2023-04-03T00:35:39;1.10;99.90
13186;DHT22;6658;53.080;7.428;2023-04-03T00:38:04;1.10;99.90
13186;DHT22;6658;53.080;7.428;2023-04-03T00:40:35;1.10;99.90
13186;DHT22;6658;53.080;7.428;2023-04-03T00:43:01;1.10;99.90
13186;DHT22;6658;53.080;7.428;2023-04-03T00:45:36;1.10;99.90
13186;DHT22;6658;53.080;7.428;2023-04-03T00:48:05;1.10;99.90
13186;DHT22;6658;53.080;7.428;2023-04-03T00:50:35;1.10;99.90
13186;DHT22;6658;53.080;7.428;2023-04-03T00:53:03;1.00;99.90
13186;DHT22;6658;53.080;7.428;2023-04-03T00:55:30;1.00;99.90
13186;DHT22;6658;53.080;7.428;2023-04-03T00:57:57;1.00;99.90
13186;DHT22;6658;53.080;7.428;2023-04-03T01:00:24;1.00;99.90
13186;DHT22;6658;53.080;7.428;2023-04-03T01:02:51;1.00;99.90
13186;DHT22;6658;53.080;7.428;2023-04-03T01:05:17;1.00;99.90
13186;DHT22;6658;53.080;7.428;2023-04-03T01:07:45;0.90;99.90
13186;DHT22;6658;53.080;7.428;2023-04-03T01:10:13;0.90;99.90
13186;DHT22;6658;53.080;7.428;2023-04-03T01:12:42;0.80;99.90
13186;DHT22;6658;53.080;7.428;2023-04-03T01:15:31;0.80;99.90
13186;DHT22;6658;53.080;7.428;2023-04-03T01:18:00;0.80;99.90
13186;DHT22;6658;53.080;7.428;2023-04-03T01:25:44;0.60;99.90
13186;DHT22;6658;53.080;7.428;2023-04-03T01:28:16;0.60;99.90
13186;DHT22;6658;53.080;7.428;2023-04-03T01:33:14;0.50;99.90
13186;DHT22;6658;53.080;7.428;2023-04-03T01:35:40;0.40;99.90
13186;DHT22;6658;53.080;7.428;2023-04-03T01:38:05;0.40;99.90
13186;DHT22;6658;53.080;7.428;2023-04-03T01:40:32;0.30;99.90
13186;DHT22;6658;53.080;7.428;2023-04-03T01:42:58;0.20;99.90
13186;DHT22;6658;53.080;7.428;2023-04-03T01:45:23;0.20;99.90
13186;DHT22;6658;53.080;7.428;2023-04-03T01:47:49;0.20;99.90
13186;DHT22;6658;53.080;7.428;2023-04-03T01:50:15;0.10;99.90
13186;DHT22;6658;53.080;7.428;2023-04-03T01:52:41;0.10;99.90
13186;DHT22;6658;53.080;7.428;2023-04-03T01:55:07;0.00;99.90
13186;DHT22;6658;53.080;7.428;2023-04-03T01:57:32;-0.10;99.90
13186;DHT22;6658;53.080;7.428;2023-04-03T01:59:58;-0.10;99.90
13186;DHT22;6658;53.080;7.428;2023-04-03T02:02:24;-0.20;99.90
13186;DHT22;6658;53.080;7.428;2023-04-03T02:04:50;-0.20;99.90
13186;DHT22;6658;53.080;7.428;2023-04-03T02:07:15;-0.30;99.90
13186;DHT22;6658;53.080;7.428;2023-04-03T02:09:41;-0.30;99.90
13186;DHT22;6658;53.080;7.428;2023-04-03T02:12:07;-0.40;99.90
13186;DHT22;6658;53.080;7.428;2023-04-03T02:14:32;-0.40;99.90
13186;DHT22;6658;53.080;7.428;2023-04-03T02:16:59;-0.50;99.90
13186;DHT22;6658;53.080;7.428;2023-04-03T02:19:26;-0.60;99.90
13186;DHT22;6658;53.080;7.428;2023-04-03T02:21:51;-0.70;99.90
13186;DHT22;6658;53.080;7.428;2023-04-03T02:24:17;-0.70;99.90
13186;DHT22;6658;53.080;7.428;2023-04-03T02:26:43;-0.80;99.90
13186;DHT22;6658;53.080;7.428;2023-04-03T02:29:08;-0.70;99.90
13186;DHT22;6658;53.080;7.428;2023-04-03T02:31:34;-0.60;99.90
13186;DHT22;6658;53.080;7.428;2023-04-03T02:34:00;-0.50;99.90
13186;DHT22;6658;53.080;7.428;2023-04-03T02:36:25;-0.50;99.90
13186;DHT22;6658;53.080;7.428;2023-04-03T02:38:51;-0.40;99.90
13186;DHT22;6658;53.080;7.428;2023-04-03T02:41:17;-0.30;99.90
13186;DHT22;6658;53.080;7.428;2023-04-03T02:43:42;-0.30;99.90
13186;DHT22;6658;53.080;7.428;2023-04-03T02:46:08;-0.30;99.90
13186;DHT22;6658;53.080;7.428;2023-04-03T02:48:34;-0.30;99.90
13186;DHT22;6658;53.080;7.428;2023-04-03T02:51:00;-0.30;99.90
13186;DHT22;6658;53.080;7.428;2023-04-03T02:53:26;-0.20;99.90
13186;DHT22;6658;53.080;7.428;2023-04-03T02:55:52;-0.20;99.90
13186;DHT22;6658;53.080;7.428;2023-04-03T02:58:17;-0.20;99.90
13186;DHT22;6658;53.080;7.428;2023-04-03T03:00:43;-0.20;99.90
13186;DHT22;6658;53.080;7.428;2023-04-03T03:03:09;-0.10;99.90
13186;DHT22;6658;53.080;7.428;2023-04-03T03:05:34;-0.10;99.90
13186;DHT22;6658;53.080;7.428;2023-04-03T03:08:01;-0.10;99.90
13186;DHT22;6658;53.080;7.428;2023-04-03T03:10:27;-0.10;99.90
13186;DHT22;6658;53.080;7.428;2023-04-03T03:12:52;-0.10;99.90
13186;DHT22;6658;53.080;7.428;2023-04-03T03:15:18;-0.10;99.90
13186;DHT22;6658;53.080;7.428;2023-04-03T03:17:44;-0.10;99.90
13186;DHT22;6658;53.080;7.428;2023-04-03T03:20:11;-0.10;99.90
13186;DHT22;6658;53.080;7.428;2023-04-03T03:22:37;-0.20;99.90
13186;DHT22;6658;53.080;7.428;2023-04-03T03:25:03;-0.10;99.90
13186;DHT22;6658;53.080;7.428;2023-04-03T03:27:29;-0.20;99.90
13186;DHT22;6658;53.080;7.428;2023-04-03T03:29:55;-0.20;99.90
13186;DHT22;6658;53.080;7.428;2023-04-03T03:32:21;-0.10;99.90
13186;DHT22;6658;53.080;7.428;2023-04-03T03:34:46;-0.20;99.90
13186;DHT22;6658;53.080;7.428;2023-04-03T03:37:12;-0.10;99.90
13186;DHT22;6658;53.080;7.428;2023-04-03T03:39:37;-0.20;99.90
13186;DHT22;6658;53.080;7.428;2023-04-03T03:42:03;-0.20;99.90
13186;DHT22;6658;53.080;7.428;2023-04-03T03:44:29;-0.30;99.90
13186;DHT22;6658;53.080;7.428;2023-04-03T03:46:55;-0.30;99.90
13186;DHT22;6658;53.080;7.428;2023-04-03T03:49:21;-0.30;99.90
13186;DHT22;6658;53.080;7.428;2023-04-03T03:51:47;-0.30;99.90
13186;DHT22;6658;53.080;7.428;2023-04-03T03:54:13;-0.40;99.90
13186;DHT22;6658;53.080;7.428;2023-04-03T03:56:39;-0.40;99.90
13186;DHT22;6658;53.080;7.428;2023-04-03T03:59:05;-0.40;99.90
13186;DHT22;6658;53.080;7.428;2023-04-03T04:01:31;-0.50;99.90
13186;DHT22;6658;53.080;7.428;2023-04-03T04:03:57;-0.50;99.90
13186;DHT22;6658;53.080;7.428;2023-04-03T04:06:23;-0.60;99.90
13186;DHT22;6658;53.080;7.428;2023-04-03T04:08:48;-0.60;99.90
13186;DHT22;6658;53.080;7.428;2023-04-03T04:11:14;-0.60;99.90
13186;DHT22;6658;53.080;7.428;2023-04-03T04:13:40;-0.60;99.90
13186;DHT22;6658;53.080;7.428;2023-04-03T04:16:06;-0.60;99.90
13186;DHT22;6658;53.080;7.428;2023-04-03T04:18:32;-0.60;99.90
13186;DHT22;6658;53.080;7.428;2023-04-03T04:20:58;-0.60;99.90
13186;DHT22;6658;53.080;7.428;2023-04-03T04:23:24;-0.60;99.90
13186;DHT22;6658;53.080;7.428;2023-04-03T04:25:50;-0.60;99.90
13186;DHT22;6658;53.080;7.428;2023-04-03T04:28:16;-0.60;99.90
13186;DHT22;6658;53.080;7.428;2023-04-03T04:30:42;-0.70;99.90
13186;DHT22;6658;53.080;7.428;2023-04-03T04:33:08;-0.70;99.90
13186;DHT22;6658;53.080;7.428;2023-04-03T04:35:34;-0.70;99.90
13186;DHT22;6658;53.080;7.428;2023-04-03T04:38:00;-0.70;99.90
13186;DHT22;6658;53.080;7.428;2023-04-03T04:40:26;-0.70;99.90
13186;DHT22;6658;53.080;7.428;2023-04-03T04:42:52;-0.80;99.90
13186;DHT22;6658;53.080;7.428;2023-04-03T04:45:18;-0.80;99.90
13186;DHT22;6658;53.080;7.428;2023-04-03T04:47:44;-0.80;99.90
13186;DHT22;6658;53.080;7.428;2023-04-03T04:50:10;-0.80;99.90
13186;DHT22;6658;53.080;7.428;2023-04-03T04:52:37;-0.90;99.90
13186;DHT22;6658;53.080;7.428;2023-04-03T04:55:03;-0.80;99.90
13186;DHT22;6658;53.080;7.428;2023-04-03T04:57:29;-0.80;99.90
13186;DHT22;6658;53.080;7.428;2023-04-03T04:59:55;-0.80;99.90
13186;DHT22;6658;53.080;7.428;2023-04-03T05:02:20;-0.80;99.90
13186;DHT22;6658;53.080;7.428;2023-04-03T05:04:46;-0.70;99.90
13186;DHT22;6658;53.080;7.428;2023-04-03T05:07:12;-0.80;99.90
13186;DHT22;6658;53.080;7.428;2023-04-03T05:09:37;-0.80;99.90
13186;DHT22;6658;53.080;7.428;2023-04-03T05:12:03;-0.80;99.90
13186;DHT22;6658;53.080;7.428;2023-04-03T05:14:29;-0.80;99.90
13186;DHT22;6658;53.080;7.428;2023-04-03T05:16:55;-0.80;99.90
13186;DHT22;6658;53.080;7.428;2023-04-03T05:19:21;-0.80;99.90
13186;DHT22;6658;53.080;7.428;2023-04-03T05:21:47;-0.70;99.90
13186;DHT22;6658;53.080;7.428;2023-04-03T05:24:14;-0.60;99.90
13186;DHT22;6658;53.080;7.428;2023-04-03T05:26:40;-0.40;99.90
13186;DHT22;6658;53.080;7.428;2023-04-03T05:29:06;-0.20;99.90
13186;DHT22;6658;53.080;7.428;2023-04-03T05:31:32;0.20;99.90
13186;DHT22;6658;53.080;7.428;2023-04-03T05:33:58;0.50;99.90
13186;DHT22;6658;53.080;7.428;2023-04-03T05:36:24;0.80;99.90
13186;DHT22;6658;53.080;7.428;2023-04-03T05:38:51;1.10;99.90
13186;DHT22;6658;53.080;7.428;2023-04-03T05:41:17;1.40;99.90
13186;DHT22;6658;53.080;7.428;2023-04-03T05:43:42;1.50;99.90
13186;DHT22;6658;53.080;7.428;2023-04-03T05:46:12;1.50;99.90
13186;DHT22;6658;53.080;7.428;2023-04-03T05:48:39;1.50;99.90
13186;DHT22;6658;53.080;7.428;2023-04-03T05:51:06;1.50;99.90
13186;DHT22;6658;53.080;7.428;2023-04-03T05:53:35;1.50;99.90
13186;DHT22;6658;53.080;7.428;2023-04-03T05:56:03;1.50;99.90
13186;DHT22;6658;53.080;7.428;2023-04-03T05:58:28;1.30;99.90
13186;DHT22;6658;53.080;7.428;2023-04-03T06:00:54;1.20;99.90
13186;DHT22;6658;53.080;7.428;2023-04-03T06:03:20;1.20;99.90
13186;DHT22;6658;53.080;7.428;2023-04-03T06:05:46;1.10;99.90
13186;DHT22;6658;53.080;7.428;2023-04-03T06:08:12;1.10;99.90
13186;DHT22;6658;53.080;7.428;2023-04-03T06:10:38;1.10;99.90
13186;DHT22;6658;53.080;7.428;2023-04-03T06:13:04;1.20;99.90
13186;DHT22;6658;53.080;7.428;2023-04-03T06:15:30;1.20;99.90
13186;DHT22;6658;53.080;7.428;2023-04-03T06:17:56;1.20;99.90
13186;DHT22;6658;53.080;7.428;2023-04-03T06:20:22;1.20;99.90
13186;DHT22;6658;53.080;7.428;2023-04-03T06:22:48;1.20;99.90
13186;DHT22;6658;53.080;7.428;2023-04-03T06:25:14;1.10;99.90
13186;DHT22;6658;53.080;7.428;2023-04-03T06:27:40;1.20;99.90
13186;DHT22;6658;53.080;7.428;2023-04-03T06:30:06;1.30;99.90
13186;DHT22;6658;53.080;7.428;2023-04-03T06:32:32;1.50;99.90
13186;DHT22;6658;53.080;7.428;2023-04-03T06:34:58;1.70;99.90
13186;DHT22;6658;53.080;7.428;2023-04-03T06:37:24;1.90;99.90
13186;DHT22;6658;53.080;7.428;2023-04-03T06:39:55;2.10;99.90
13186;DHT22;6658;53.080;7.428;2023-04-03T06:42:21;2.40;99.90
13186;DHT22;6658;53.080;7.428;2023-04-03T06:44:47;2.70;99.90
13186;DHT22;6658;53.080;7.428;2023-04-03T06:47:14;2.90;99.90
13186;DHT22;6658;53.080;7.428;2023-04-03T06:49:40;3.20;99.90
13186;DHT22;6658;53.080;7.428;2023-04-03T06:52:07;3.20;99.90
13186;DHT22;6658;53.080;7.428;2023-04-03T06:54:33;3.20;99.90
13186;DHT22;6658;53.080;7.428;2023-04-03T06:56:59;3.40;99.90
13186;DHT22;6658;53.080;7.428;2023-04-03T06:59:25;3.50;99.90
13186;DHT22;6658;53.080;7.428;2023-04-03T07:01:51;3.70;99.90
13186;DHT22;6658;53.080;7.428;2023-04-03T07:04:17;4.00;99.90
13186;DHT22;6658;53.080;7.428;2023-04-03T07:06:44;4.30;99.90
13186;DHT22;6658;53.080;7.428;2023-04-03T07:09:10;4.60;99.90
13186;DHT22;6658;53.080;7.428;2023-04-03T07:11:36;4.70;99.90
13186;DHT22;6658;53.080;7.428;2023-04-03T07:14:03;4.70;99.90
13186;DHT22;6658;53.080;7.428;2023-04-03T07:16:28;4.70;99.90
13186;DHT22;6658;53.080;7.428;2023-04-03T07:18:56;4.80;99.90
13186;DHT22;6658;53.080;7.428;2023-04-03T07:21:22;4.80;99.90
13186;DHT22;6658;53.080;7.428;2023-04-03T07:23:48;4.90;99.90
13186;DHT22;6658;53.080;7.428;2023-04-03T07:26:14;5.20;99.90
13186;DHT22;6658;53.080;7.428;2023-04-03T07:28:40;5.40;99.90
13186;DHT22;6658;53.080;7.428;2023-04-03T07:31:08;5.40;99.90
13186;DHT22;6658;53.080;7.428;2023-04-03T07:33:37;5.50;99.90
13186;DHT22;6658;53.080;7.428;2023-04-03T07:36:03;5.40;99.90
13186;DHT22;6658;53.080;7.428;2023-04-03T07:38:29;5.40;99.90
13186;DHT22;6658;53.080;7.428;2023-04-03T07:40:55;5.50;99.90
13186;DHT22;6658;53.080;7.428;2023-04-03T07:43:21;5.70;99.90
13186;DHT22;6658;53.080;7.428;2023-04-03T07:45:48;6.00;99.90
13186;DHT22;6658;53.080;7.428;2023-04-03T07:48:17;6.20;99.90
13186;DHT22;6658;53.080;7.428;2023-04-03T07:50:44;6.20;99.90
13186;DHT22;6658;53.080;7.428;2023-04-03T07:53:10;6.40;99.90
13186;DHT22;6658;53.080;7.428;2023-04-03T07:55:36;6.20;99.90
13186;DHT22;6658;53.080;7.428;2023-04-03T07:58:09;6.30;99.90
13186;DHT22;6658;53.080;7.428;2023-04-03T08:00:35;6.40;99.90
13186;DHT22;6658;53.080;7.428;2023-04-03T08:03:00;6.70;99.90
13186;DHT22;6658;53.080;7.428;2023-04-03T08:05:26;6.60;99.90
13186;DHT22;6658;53.080;7.428;2023-04-03T08:07:52;6.60;99.90
13186;DHT22;6658;53.080;7.428;2023-04-03T08:10:18;6.80;99.90
13186;DHT22;6658;53.080;7.428;2023-04-03T08:12:46;6.80;99.90
13186;DHT22;6658;53.080;7.428;2023-04-03T08:15:12;7.00;99.90
13186;DHT22;6658;53.080;7.428;2023-04-03T08:17:38;7.10;99.90
13186;DHT22;6658;53.080;7.428;2023-04-03T08:20:07;7.20;99.90
13186;DHT22;6658;53.080;7.428;2023-04-03T08:22:34;7.70;99.90
13186;DHT22;6658;53.080;7.428;2023-04-03T08:25:00;7.90;99.90
13186;DHT22;6658;53.080;7.428;2023-04-03T08:27:27;7.90;99.90
13186;DHT22;6658;53.080;7.428;2023-04-03T08:29:52;8.00;99.90
13186;DHT22;6658;53.080;7.428;2023-04-03T08:32:18;8.60;99.90
13186;DHT22;6658;53.080;7.428;2023-04-03T08:34:44;9.20;99.90
13186;DHT22;6658;53.080;7.428;2023-04-03T08:37:10;9.20;99.90
13186;DHT22;6658;53.080;7.428;2023-04-03T08:39:36;9.50;99.90
13186;DHT22;6658;53.080;7.428;2023-04-03T08:42:10;10.00;99.90
13186;DHT22;6658;53.080;7.428;2023-04-03T08:44:59;10.50;99.90
13186;DHT22;6658;53.080;7.428;2023-04-03T08:47:37;10.50;99.50
13186;DHT22;6658;53.080;7.428;2023-04-03T08:50:47;10.50;99.90
13186;DHT22;6658;53.080;7.428;2023-04-03T08:53:15;10.70;99.60
13186;DHT22;6658;53.080;7.428;2023-04-03T08:55:51;10.40;99.00
13186;DHT22;6658;53.080;7.428;2023-04-03T08:58:30;10.90;99.90
13186;DHT22;6658;53.080;7.428;2023-04-03T09:01:03;11.00;97.00
13186;DHT22;6658;53.080;7.428;2023-04-03T09:03:34;11.60;95.70
13186;DHT22;6658;53.080;7.428;2023-04-03T09:06:15;11.60;95.50
13186;DHT22;6658;53.080;7.428;2023-04-03T09:14:33;12.10;95.30
13186;DHT22;6658;53.080;7.428;2023-04-03T09:19:56;12.50;89.10
13186;DHT22;6658;53.080;7.428;2023-04-03T09:22:25;11.80;89.90
13186;DHT22;6658;53.080;7.428;2023-04-03T09:25:42;11.20;90.90
13186;DHT22;6658;53.080;7.428;2023-04-03T09:27:49;11.10;90.50
13186;DHT22;6658;53.080;7.428;2023-04-03T09:30:18;11.00;88.30
13186;DHT22;6658;53.080;7.428;2023-04-03T09:32:46;10.90;87.70
13186;DHT22;6658;53.080;7.428;2023-04-03T09:35:27;10.70;87.40
13186;DHT22;6658;53.080;7.428;2023-04-03T09:38:02;10.60;88.30
13186;DHT22;6658;53.080;7.428;2023-04-03T09:40:41;11.30;89.10
13186;DHT22;6658;53.080;7.428;2023-04-03T09:43:23;12.00;84.20
13186;DHT22;6658;53.080;7.428;2023-04-03T09:45:50;11.70;85.30
13186;DHT22;6658;53.080;7.428;2023-04-03T09:48:25;11.30;86.60
13186;DHT22;6658;53.080;7.428;2023-04-03T09:53:36;11.90;86.40
13186;DHT22;6658;53.080;7.428;2023-04-03T09:56:17;11.90;80.40
13186;DHT22;6658;53.080;7.428;2023-04-03T10:04:16;10.20;87.70
13186;DHT22;6658;53.080;7.428;2023-04-03T10:06:50;10.90;84.60
13186;DHT22;6658;53.080;7.428;2023-04-03T10:09:27;11.60;85.20
13186;DHT22;6658;53.080;7.428;2023-04-03T10:12:08;11.50;82.00
13186;DHT22;6658;53.080;7.428;2023-04-03T10:14:36;11.70;83.70
13186;DHT22;6658;53.080;7.428;2023-04-03T10:17:18;11.70;79.50
13186;DHT22;6658;53.080;7.428;2023-04-03T10:19:55;10.80;82.90
13186;DHT22;6658;53.080;7.428;2023-04-03T10:22:53;10.20;83.70
13186;DHT22;6658;53.080;7.428;2023-04-03T10:28:09;10.90;84.20
13186;DHT22;6658;53.080;7.428;2023-04-03T10:36:12;10.00;90.90
13186;DHT22;6658;53.080;7.428;2023-04-03T10:39:00;9.50;94.20
13186;DHT22;6658;53.080;7.428;2023-04-03T10:41:53;9.50;91.30
13186;DHT22;6658;53.080;7.428;2023-04-03T10:44:39;9.20;92.40
13186;DHT22;6658;53.080;7.428;2023-04-03T10:47:22;9.20;92.40
13186;DHT22;6658;53.080;7.428;2023-04-03T10:50:58;9.10;92.30
13186;DHT22;6658;53.080;7.428;2023-04-03T10:56:03;9.00;90.80
13186;DHT22;6658;53.080;7.428;2023-04-03T10:58:38;8.90;92.10
13186;DHT22;6658;53.080;7.428;2023-04-03T11:01:20;8.70;92.20
13186;DHT22;6658;53.080;7.428;2023-04-03T11:03:53;8.50;91.30
13186;DHT22;6658;53.080;7.428;2023-04-03T11:06:21;8.50;90.60
13186;DHT22;6658;53.080;7.428;2023-04-03T11:09:01;8.10;92.60
13186;DHT22;6658;53.080;7.428;2023-04-03T11:11:34;8.10;91.80
13186;DHT22;6658;53.080;7.428;2023-04-03T11:22:27;8.00;92.30
13186;DHT22;6658;53.080;7.428;2023-04-03T11:27:46;7.90;92.30
13186;DHT22;6658;53.080;7.428;2023-04-03T11:35:36;8.20;92.60
13186;DHT22;6658;53.080;7.428;2023-04-03T11:38:04;8.10;91.80
13186;DHT22;6658;53.080;7.428;2023-04-03T11:40:34;8.00;92.70
13186;DHT22;6658;53.080;7.428;2023-04-03T11:43:26;8.00;91.70
13186;DHT22;6658;53.080;7.428;2023-04-03T11:53:39;8.10;92.30
13186;DHT22;6658;53.080;7.428;2023-04-03T12:04:20;8.50;91.40
13186;DHT22;6658;53.080;7.428;2023-04-03T12:11:51;8.50;91.20
13186;DHT22;6658;53.080;7.428;2023-04-03T12:14:17;8.40;91.00
13186;DHT22;6658;53.080;7.428;2023-04-03T12:16:46;8.60;92.60
13186;DHT22;6658;53.080;7.428;2023-04-03T12:29:36;9.00;89.80
13186;DHT22;6658;53.080;7.428;2023-04-03T12:46:18;8.80;90.60
13186;DHT22;6658;53.080;7.428;2023-04-03T12:51:15;8.80;90.10
13186;DHT22;6658;53.080;7.428;2023-04-03T12:53:44;8.80;89.10
13186;DHT22;6658;53.080;7.428;2023-04-03T12:56:26;8.80;90.10
13186;DHT22;6658;53.080;7.428;2023-04-03T12:58:55;8.90;90.80
13186;DHT22;6658;53.080;7.428;2023-04-03T13:01:25;9.10;92.00
13186;DHT22;6658;53.080;7.428;2023-04-03T13:03:58;9.10;90.20
13186;DHT22;6658;53.080;7.428;2023-04-03T13:06:41;9.10;90.60
13186;DHT22;6658;53.080;7.428;2023-04-03T13:09:20;9.20;88.40
13186;DHT22;6658;53.080;7.428;2023-04-03T13:11:55;9.10;90.30
13186;DHT22;6658;53.080;7.428;2023-04-03T13:14:23;9.20;91.10
13186;DHT22;6658;53.080;7.428;2023-04-03T13:16:59;9.20;90.40
13186;DHT22;6658;53.080;7.428;2023-04-03T13:19:26;9.30;88.60
13186;DHT22;6658;53.080;7.428;2023-04-03T13:22:04;9.20;88.70
13186;DHT22;6658;53.080;7.428;2023-04-03T13:24:33;9.10;90.70
13186;DHT22;6658;53.080;7.428;2023-04-03T13:27:01;9.10;90.10
13186;DHT22;6658;53.080;7.428;2023-04-03T13:29:33;9.00;90.30
13186;DHT22;6658;53.080;7.428;2023-04-03T13:32:00;9.00;91.50
13186;DHT22;6658;53.080;7.428;2023-04-03T13:34:29;9.10;91.10
13186;DHT22;6658;53.080;7.428;2023-04-03T13:36:59;9.20;91.00
13186;DHT22;6658;53.080;7.428;2023-04-03T13:39:34;9.30;91.10
13186;DHT22;6658;53.080;7.428;2023-04-03T13:42:31;9.30;90.10
13186;DHT22;6658;53.080;7.428;2023-04-03T13:45:10;9.00;89.10
13186;DHT22;6658;53.080;7.428;2023-04-03T13:47:42;8.90;90.10
13186;DHT22;6658;53.080;7.428;2023-04-03T13:50:24;8.90;90.40
13186;DHT22;6658;53.080;7.428;2023-04-03T13:53:02;9.10;90.50
13186;DHT22;6658;53.080;7.428;2023-04-03T13:55:32;9.00;90.00
13186;DHT22;6658;53.080;7.428;2023-04-03T14:03:03;9.20;91.30
13186;DHT22;6658;53.080;7.428;2023-04-03T14:05:36;9.20;89.90
13186;DHT22;6658;53.080;7.428;2023-04-03T14:08:02;9.20;88.10
13186;DHT22;6658;53.080;7.428;2023-04-03T14:10:29;9.10;89.50
13186;DHT22;6658;53.080;7.428;2023-04-03T14:12:55;9.10;90.10
13186;DHT22;6658;53.080;7.428;2023-04-03T14:15:27;9.20;91.10
13186;DHT22;6658;53.080;7.428;2023-04-03T14:17:55;9.30;89.40
13186;DHT22;6658;53.080;7.428;2023-04-03T14:20:24;9.30;90.80
13186;DHT22;6658;53.080;7.428;2023-04-03T14:22:51;9.40;91.50
13186;DHT22;6658;53.080;7.428;2023-04-03T14:25:17;9.40;90.60
13186;DHT22;6658;53.080;7.428;2023-04-03T14:27:46;9.30;89.60
13186;DHT22;6658;53.080;7.428;2023-04-03T14:30:33;9.30;90.00
13186;DHT22;6658;53.080;7.428;2023-04-03T14:33:00;9.30;91.60
13186;DHT22;6658;53.080;7.428;2023-04-03T14:35:27;9.30;91.20
13186;DHT22;6658;53.080;7.428;2023-04-03T14:37:53;9.20;91.40
13186;DHT22;6658;53.080;7.428;2023-04-03T14:40:23;9.30;92.00
13186;DHT22;6658;53.080;7.428;2023-04-03T14:42:49;9.30;90.20
13186;DHT22;6658;53.080;7.428;2023-04-03T14:45:16;9.30;90.20
13186;DHT22;6658;53.080;7.428;2023-04-03T14:47:55;9.20;90.00
13186;DHT22;6658;53.080;7.428;2023-04-03T14:50:23;9.30;91.90
13186;DHT22;6658;53.080;7.428;2023-04-03T14:52:52;9.40;89.90
13186;DHT22;6658;53.080;7.428;2023-04-03T14:55:22;9.20;90.00
13186;DHT22;6658;53.080;7.428;2023-04-03T14:57:48;9.20;90.60
13186;DHT22;6658;53.080;7.428;2023-04-03T15:00:18;9.10;91.70
13186;DHT22;6658;53.080;7.428;2023-04-03T15:02:45;9.00;91.00
13186;DHT22;6658;53.080;7.428;2023-04-03T15:05:11;9.00;92.00
13186;DHT22;6658;53.080;7.428;2023-04-03T15:07:40;8.90;92.70
13186;DHT22;6658;53.080;7.428;2023-04-03T15:10:16;9.00;93.20
13186;DHT22;6658;53.080;7.428;2023-04-03T15:12:44;9.10;93.40
13186;DHT22;6658;53.080;7.428;2023-04-03T15:15:10;9.20;92.70
13186;DHT22;6658;53.080;7.428;2023-04-03T15:17:36;9.20;93.10
13186;DHT22;6658;53.080;7.428;2023-04-03T15:20:02;9.20;92.60
13186;DHT22;6658;53.080;7.428;2023-04-03T15:22:28;9.30;92.30
13186;DHT22;6658;53.080;7.428;2023-04-03T15:24:54;9.20;92.10
13186;DHT22;6658;53.080;7.428;2023-04-03T15:27:19;9.10;92.20
13186;DHT22;6658;53.080;7.428;2023-04-03T15:29:45;9.20;93.10
13186;DHT22;6658;53.080;7.428;2023-04-03T15:32:12;9.10;93.20
13186;DHT22;6658;53.080;7.428;2023-04-03T15:34:39;9.20;92.90
13186;DHT22;6658;53.080;7.428;2023-04-03T15:37:05;9.10;92.90
13186;DHT22;6658;53.080;7.428;2023-04-03T15:39:31;9.10;92.70
13186;DHT22;6658;53.080;7.428;2023-04-03T15:41:56;9.00;92.30
13186;DHT22;6658;53.080;7.428;2023-04-03T15:44:25;8.90;92.20
13186;DHT22;6658;53.080;7.428;2023-04-03T15:46:50;8.90;92.50
13186;DHT22;6658;53.080;7.428;2023-04-03T15:49:18;8.90;93.30
13186;DHT22;6658;53.080;7.428;2023-04-03T15:51:44;8.90;93.70
13186;DHT22;6658;53.080;7.428;2023-04-03T15:54:10;8.90;93.20
13186;DHT22;6658;53.080;7.428;2023-04-03T15:56:36;8.90;93.20
13186;DHT22;6658;53.080;7.428;2023-04-03T15:59:02;8.80;93.50
13186;DHT22;6658;53.080;7.428;2023-04-03T16:01:28;8.80;93.90
13186;DHT22;6658;53.080;7.428;2023-04-03T16:03:54;8.80;94.20
13186;DHT22;6658;53.080;7.428;2023-04-03T16:06:20;8.80;94.40
13186;DHT22;6658;53.080;7.428;2023-04-03T16:08:47;8.80;93.60
13186;DHT22;6658;53.080;7.428;2023-04-03T16:11:13;8.70;93.60
13186;DHT22;6658;53.080;7.428;2023-04-03T16:13:39;8.70;94.30
13186;DHT22;6658;53.080;7.428;2023-04-03T16:16:06;8.60;94.60
13186;DHT22;6658;53.080;7.428;2023-04-03T16:18:34;8.60;94.70
13186;DHT22;6658;53.080;7.428;2023-04-03T16:21:00;8.60;95.30
13186;DHT22;6658;53.080;7.428;2023-04-03T16:23:26;8.60;95.00
13186;DHT22;6658;53.080;7.428;2023-04-03T16:25:52;8.60;95.70
13186;DHT22;6658;53.080;7.428;2023-04-03T16:28:18;8.60;95.30
13186;DHT22;6658;53.080;7.428;2023-04-03T16:30:45;8.60;95.80
13186;DHT22;6658;53.080;7.428;2023-04-03T16:33:13;8.60;96.00
13186;DHT22;6658;53.080;7.428;2023-04-03T16:35:39;8.50;95.60
13186;DHT22;6658;53.080;7.428;2023-04-03T16:38:07;8.40;95.60
13186;DHT22;6658;53.080;7.428;2023-04-03T16:40:33;8.40;96.40
13186;DHT22;6658;53.080;7.428;2023-04-03T16:43:01;8.40;96.10
13186;DHT22;6658;53.080;7.428;2023-04-03T16:45:27;8.30;96.70
13186;DHT22;6658;53.080;7.428;2023-04-03T16:47:53;8.30;96.30
13186;DHT22;6658;53.080;7.428;2023-04-03T16:50:19;8.20;96.80
13186;DHT22;6658;53.080;7.428;2023-04-03T16:52:47;8.20;97.20
13186;DHT22;6658;53.080;7.428;2023-04-03T16:55:13;8.20;98.50
13186;DHT22;6658;53.080;7.428;2023-04-03T16:57:39;8.20;97.80
13186;DHT22;6658;53.080;7.428;2023-04-03T17:00:05;8.10;98.00
13186;DHT22;6658;53.080;7.428;2023-04-03T17:02:31;8.10;97.90
13186;DHT22;6658;53.080;7.428;2023-04-03T17:04:57;8.10;98.20
13186;DHT22;6658;53.080;7.428;2023-04-03T17:07:24;8.00;98.50
13186;DHT22;6658;53.080;7.428;2023-04-03T17:09:50;8.00;98.60
13186;DHT22;6658;53.080;7.428;2023-04-03T17:12:17;7.90;98.60
13186;DHT22;6658;53.080;7.428;2023-04-03T17:14:42;7.90;98.70
13186;DHT22;6658;53.080;7.428;2023-04-03T17:17:08;7.80;98.90
13186;DHT22;6658;53.080;7.428;2023-04-03T17:19:36;7.80;99.10
13186;DHT22;6658;53.080;7.428;2023-04-03T17:22:02;7.80;99.50
13186;DHT22;6658;53.080;7.428;2023-04-03T17:24:29;7.80;99.80
13186;DHT22;6658;53.080;7.428;2023-04-03T17:26:55;7.70;99.90
13186;DHT22;6658;53.080;7.428;2023-04-03T17:29:20;7.60;99.90
13186;DHT22;6658;53.080;7.428;2023-04-03T17:31:46;7.60;99.90
13186;DHT22;6658;53.080;7.428;2023-04-03T17:34:12;7.50;99.90
13186;DHT22;6658;53.080;7.428;2023-04-03T17:36:39;7.40;99.90
13186;DHT22;6658;53.080;7.428;2023-04-03T17:39:06;7.40;99.90
13186;DHT22;6658;53.080;7.428;2023-04-03T17:41:31;7.30;99.90
13186;DHT22;6658;53.080;7.428;2023-04-03T17:43:57;7.30;99.90
13186;DHT22;6658;53.080;7.428;2023-04-03T17:46:24;7.20;99.90
13186;DHT22;6658;53.080;7.428;2023-04-03T17:48:51;7.20;99.90
13186;DHT22;6658;53.080;7.428;2023-04-03T17:51:19;7.10;99.90